RLA9151 USSS-UNKL
Flight info
| Callsign | RLA9151 |
|---|---|
| Flight time | 2h 28m |
| Altitude | 39000 |
| Route | DOSUM6K DOSUM T377 SALER N992 NH R372 ADONI A300 RANET RANET2R |
| Aircraft | CL60/M-SBDE1E2E3FGHIJ1J4J5J7M3RWXYZ/LB1V1D1 |
Departure
| Time | 2026-05-01 12:38 |
|---|---|
| Airport | Koltsovo Airport (USSS) |
Arrival
| Time | 2026-05-01 15:07 |
|---|---|
| Airport | Krasnoyarsk International Airport (UNKL) |
| Time | Latitude | Longitude | Altitude | Speed | Heading |
|---|---|---|---|---|---|
| 2026-05-01 12:11 | 56.74921 | 60.79543 | 748 ft | 0 kts | 0° |
| 2026-05-01 12:28 | 56.74899 | 60.79543 | 747 ft | 2 kts | 0° |
| 2026-05-01 12:28 | 56.74884 | 60.79543 | 746 ft | 2 kts | 0° |
| 2026-05-01 12:28 | 56.74857 | 60.79526 | 746 ft | 2 kts | 47° |
| 2026-05-01 12:29 | 56.74850 | 60.79504 | 745 ft | 2 kts | 75° |
| 2026-05-01 12:29 | 56.74849 | 60.79485 | 745 ft | 0 kts | 91° |
| 2026-05-01 12:31 | 56.74849 | 60.79505 | 745 ft | 4 kts | 91° |
| 2026-05-01 12:32 | 56.74849 | 60.79628 | 746 ft | 11 kts | 89° |
| 2026-05-01 12:32 | 56.74848 | 60.79978 | 746 ft | 16 kts | 90° |
| 2026-05-01 12:32 | 56.74847 | 60.80202 | 746 ft | 18 kts | 90° |
| 2026-05-01 12:33 | 56.74847 | 60.80439 | 750 ft | 18 kts | 90° |
| 2026-05-01 12:33 | 56.74847 | 60.80669 | 754 ft | 18 kts | 90° |
| 2026-05-01 12:33 | 56.74847 | 60.80896 | 759 ft | 17 kts | 90° |
| 2026-05-01 12:33 | 56.74852 | 60.81070 | 761 ft | 11 kts | 73° |
| 2026-05-01 12:34 | 56.74860 | 60.81218 | 762 ft | 12 kts | 90° |
| 2026-05-01 12:34 | 56.74860 | 60.81416 | 763 ft | 16 kts | 90° |
| 2026-05-01 12:34 | 56.74859 | 60.81637 | 765 ft | 17 kts | 91° |
| 2026-05-01 12:34 | 56.74855 | 60.81864 | 766 ft | 17 kts | 114° |
| 2026-05-01 12:35 | 56.74794 | 60.82081 | 766 ft | 20 kts | 115° |
| 2026-05-01 12:35 | 56.74744 | 60.82210 | 766 ft | 8 kts | 173° |
| 2026-05-01 12:35 | 56.74665 | 60.82209 | 763 ft | 14 kts | 180° |
| 2026-05-01 12:35 | 56.74556 | 60.82207 | 760 ft | 6 kts | 181° |
| 2026-05-01 12:36 | 56.74555 | 60.82207 | 760 ft | 0 kts | 181° |
| 2026-05-01 12:36 | 56.74528 | 60.82207 | 760 ft | 7 kts | 181° |
| 2026-05-01 12:36 | 56.74460 | 60.82205 | 759 ft | 12 kts | 181° |
| 2026-05-01 12:37 | 56.74357 | 60.82194 | 757 ft | 17 kts | 184° |
| 2026-05-01 12:37 | 56.74224 | 60.82177 | 755 ft | 20 kts | 184° |
| 2026-05-01 12:37 | 56.74110 | 60.82162 | 754 ft | 13 kts | 185° |
| 2026-05-01 12:37 | 56.74065 | 60.82109 | 754 ft | 9 kts | 264° |
| 2026-05-01 12:38 | 56.74081 | 60.81703 | 751 ft | 76 kts | 275° |
| 2026-05-01 12:38 | 56.74142 | 60.80172 | 774 ft | 158 kts | 275° |
| 2026-05-01 12:38 | 56.74204 | 60.78015 | 1391 ft | 183 kts | 278° |
| 2026-05-01 12:38 | 56.74260 | 60.75594 | 2109 ft | 201 kts | 275° |
| 2026-05-01 12:39 | 56.74285 | 60.73016 | 2757 ft | 216 kts | 278° |
| 2026-05-01 12:39 | 56.74329 | 60.70191 | 3271 ft | 232 kts | 277° |
| 2026-05-01 12:39 | 56.74366 | 60.67258 | 3710 ft | 234 kts | 277° |
| 2026-05-01 12:39 | 56.74400 | 60.64272 | 4135 ft | 234 kts | 277° |
| 2026-05-01 12:40 | 56.74433 | 60.61305 | 4571 ft | 235 kts | 278° |
| 2026-05-01 12:40 | 56.74465 | 60.58315 | 5009 ft | 237 kts | 278° |
| 2026-05-01 12:40 | 56.74497 | 60.55323 | 5445 ft | 238 kts | 278° |
| 2026-05-01 12:40 | 56.74262 | 60.52173 | 5933 ft | 274 kts | 252° |
| 2026-05-01 12:41 | 56.73056 | 60.49413 | 6535 ft | 288 kts | 217° |
| 2026-05-01 12:41 | 56.71158 | 60.48218 | 7109 ft | 292 kts | 183° |
| 2026-05-01 12:41 | 56.69194 | 60.49009 | 7697 ft | 290 kts | 149° |
| 2026-05-01 12:41 | 56.67763 | 60.51375 | 8368 ft | 281 kts | 118° |
| 2026-05-01 12:42 | 56.67171 | 60.54742 | 9142 ft | 292 kts | 89° |
| 2026-05-01 12:42 | 56.67280 | 60.58560 | 9886 ft | 312 kts | 80° |
| 2026-05-01 12:42 | 56.67783 | 60.62450 | 10619 ft | 323 kts | 69° |
| 2026-05-01 12:42 | 56.68538 | 60.66366 | 11350 ft | 337 kts | 68° |
| 2026-05-01 12:43 | 56.69320 | 60.70459 | 12097 ft | 345 kts | 69° |
| 2026-05-01 12:43 | 56.70099 | 60.74564 | 12842 ft | 349 kts | 69° |
| 2026-05-01 12:43 | 56.70896 | 60.78776 | 13601 ft | 353 kts | 69° |
| 2026-05-01 12:43 | 56.71693 | 60.82996 | 14351 ft | 357 kts | 69° |
| 2026-05-01 12:44 | 56.72491 | 60.87239 | 15093 ft | 361 kts | 70° |
| 2026-05-01 12:44 | 56.73307 | 60.91586 | 15846 ft | 365 kts | 70° |
| 2026-05-01 12:44 | 56.76218 | 60.99107 | 17345 ft | 376 kts | 36° |
| 2026-05-01 12:45 | 56.80813 | 61.03788 | 18814 ft | 386 kts | 30° |
| 2026-05-01 12:45 | 56.83198 | 61.06129 | 19577 ft | 390 kts | 30° |
| 2026-05-01 12:45 | 56.85573 | 61.08464 | 20133 ft | 399 kts | 30° |
| 2026-05-01 12:46 | 56.88041 | 61.10895 | 20650 ft | 409 kts | 30° |
| 2026-05-01 12:46 | 56.90601 | 61.13420 | 21301 ft | 416 kts | 30° |
| 2026-05-01 12:46 | 56.93134 | 61.15918 | 21961 ft | 421 kts | 30° |
| 2026-05-01 12:46 | 56.95863 | 61.18104 | 22558 ft | 429 kts | 21° |
| 2026-05-01 12:47 | 56.98649 | 61.19929 | 23148 ft | 435 kts | 21° |
| 2026-05-01 12:47 | 57.01535 | 61.21830 | 23720 ft | 440 kts | 21° |
| 2026-05-01 12:47 | 57.04423 | 61.23738 | 24260 ft | 446 kts | 21° |
| 2026-05-01 12:47 | 57.07320 | 61.25657 | 24823 ft | 451 kts | 21° |
| 2026-05-01 12:48 | 57.10321 | 61.27649 | 25362 ft | 456 kts | 21° |
| 2026-05-01 12:48 | 57.13332 | 61.29652 | 25909 ft | 460 kts | 22° |
| 2026-05-01 12:48 | 57.16366 | 61.31676 | 26279 ft | 468 kts | 21° |
| 2026-05-01 12:48 | 57.19453 | 61.33738 | 26740 ft | 472 kts | 22° |
| 2026-05-01 12:49 | 57.22559 | 61.35818 | 27233 ft | 475 kts | 22° |
| 2026-05-01 12:49 | 57.25596 | 61.38354 | 27761 ft | 471 kts | 34° |
| 2026-05-01 12:49 | 57.28178 | 61.42043 | 28354 ft | 462 kts | 49° |
| 2026-05-01 12:49 | 57.30173 | 61.46675 | 28969 ft | 450 kts | 63° |
| 2026-05-01 12:50 | 57.31564 | 61.51875 | 29590 ft | 441 kts | 73° |
| 2026-05-01 12:50 | 57.32736 | 61.57138 | 30205 ft | 439 kts | 73° |
| 2026-05-01 12:50 | 57.33915 | 61.62423 | 30835 ft | 436 kts | 73° |
| 2026-05-01 12:50 | 57.35067 | 61.67594 | 31329 ft | 435 kts | 74° |
| 2026-05-01 12:51 | 57.36226 | 61.72820 | 31727 ft | 435 kts | 75° |
| 2026-05-01 12:51 | 57.37381 | 61.78038 | 32057 ft | 438 kts | 74° |
| 2026-05-01 12:51 | 57.39685 | 61.88483 | 32663 ft | 441 kts | 74° |
| 2026-05-01 12:52 | 57.40852 | 61.93792 | 32933 ft | 442 kts | 75° |
| 2026-05-01 12:52 | 57.43174 | 62.04386 | 33472 ft | 444 kts | 75° |
| 2026-05-01 12:52 | 57.44317 | 62.09623 | 33753 ft | 445 kts | 74° |
| 2026-05-01 12:53 | 57.46647 | 62.20359 | 34246 ft | 447 kts | 75° |
| 2026-05-01 12:53 | 57.47727 | 62.25758 | 34476 ft | 447 kts | 76° |
| 2026-05-01 12:53 | 57.48783 | 62.31166 | 34693 ft | 448 kts | 76° |
| 2026-05-01 12:54 | 57.49842 | 62.36598 | 34926 ft | 448 kts | 76° |
| 2026-05-01 12:54 | 57.51957 | 62.47488 | 35357 ft | 451 kts | 76° |
| 2026-05-01 12:54 | 57.53014 | 62.52958 | 35560 ft | 452 kts | 75° |
| 2026-05-01 12:55 | 57.55137 | 62.63977 | 35963 ft | 454 kts | 75° |
| 2026-05-01 12:55 | 57.56197 | 62.69506 | 36168 ft | 454 kts | 76° |
| 2026-05-01 12:55 | 57.57265 | 62.75087 | 36355 ft | 455 kts | 76° |
| 2026-05-01 12:56 | 57.58319 | 62.80613 | 36519 ft | 457 kts | 76° |
| 2026-05-01 12:56 | 57.59381 | 62.86202 | 36667 ft | 458 kts | 75° |
| 2026-05-01 12:56 | 57.60450 | 62.91839 | 36820 ft | 460 kts | 75° |
| 2026-05-01 12:56 | 57.61513 | 62.97457 | 36985 ft | 460 kts | 75° |
| 2026-05-01 12:57 | 57.62572 | 63.03073 | 37125 ft | 461 kts | 75° |
| 2026-05-01 12:57 | 57.64703 | 63.14420 | 37476 ft | 462 kts | 75° |
| 2026-05-01 12:57 | 57.65749 | 63.20021 | 37589 ft | 463 kts | 75° |
| 2026-05-01 12:58 | 57.66805 | 63.25689 | 37719 ft | 464 kts | 75° |
| 2026-05-01 12:58 | 57.67859 | 63.31361 | 37841 ft | 465 kts | 75° |
| 2026-05-01 12:58 | 57.68926 | 63.37117 | 37970 ft | 466 kts | 74° |
| 2026-05-01 12:59 | 57.71043 | 63.48598 | 38243 ft | 468 kts | 74° |
| 2026-05-01 12:59 | 57.72095 | 63.54333 | 38392 ft | 469 kts | 74° |
| 2026-05-01 12:59 | 57.74201 | 63.65850 | 38741 ft | 468 kts | 75° |
| 2026-05-01 13:00 | 57.77373 | 63.83352 | 38773 ft | 480 kts | 75° |
| 2026-05-01 13:01 | 57.80592 | 64.01276 | 38766 ft | 489 kts | 75° |
| 2026-05-01 13:02 | 57.83411 | 64.19624 | 38770 ft | 491 kts | 84° |
| 2026-05-01 13:07 | 57.95481 | 65.59066 | 38698 ft | 492 kts | 85° |
| 2026-05-01 13:08 | 57.96502 | 65.71742 | 38683 ft | 492 kts | 86° |
| 2026-05-01 13:08 | 57.97508 | 65.84408 | 38677 ft | 491 kts | 85° |
| 2026-05-01 13:09 | 57.98504 | 65.97159 | 38676 ft | 492 kts | 86° |
| 2026-05-01 13:09 | 57.99461 | 66.09804 | 38683 ft | 492 kts | 86° |
| 2026-05-01 13:10 | 58.00418 | 66.22609 | 38693 ft | 493 kts | 86° |
| 2026-05-01 13:10 | 58.01355 | 66.35333 | 38673 ft | 494 kts | 86° |
| 2026-05-01 13:11 | 58.02288 | 66.48164 | 38680 ft | 493 kts | 86° |
| 2026-05-01 13:11 | 58.03203 | 66.60937 | 38692 ft | 492 kts | 86° |
| 2026-05-01 13:12 | 58.04107 | 66.73733 | 38662 ft | 492 kts | 87° |
| 2026-05-01 13:12 | 58.04998 | 66.86539 | 38659 ft | 492 kts | 87° |
| 2026-05-01 13:13 | 58.05897 | 66.99311 | 38670 ft | 492 kts | 86° |
| 2026-05-01 13:13 | 58.06792 | 67.12171 | 38654 ft | 493 kts | 86° |
| 2026-05-01 13:14 | 58.07664 | 67.24889 | 38660 ft | 492 kts | 86° |
| 2026-05-01 13:14 | 58.08526 | 67.37660 | 38654 ft | 492 kts | 86° |
| 2026-05-01 13:15 | 58.09379 | 67.50501 | 38642 ft | 492 kts | 86° |
| 2026-05-01 13:15 | 58.10210 | 67.63216 | 38646 ft | 491 kts | 86° |
| 2026-05-01 13:16 | 58.11039 | 67.76125 | 38642 ft | 491 kts | 88° |
| 2026-05-01 13:16 | 58.11849 | 67.88955 | 38652 ft | 491 kts | 88° |
| 2026-05-01 13:17 | 58.13427 | 68.14574 | 38646 ft | 491 kts | 88° |
| 2026-05-01 13:18 | 58.14289 | 68.33778 | 38628 ft | 487 kts | 94° |
| 2026-05-01 13:18 | 58.14337 | 68.46501 | 38622 ft | 486 kts | 94° |
| 2026-05-01 13:19 | 58.14380 | 68.59230 | 38608 ft | 486 kts | 94° |
| 2026-05-01 13:20 | 58.14424 | 68.78403 | 38607 ft | 485 kts | 95° |
| 2026-05-01 13:20 | 58.14439 | 68.91111 | 38602 ft | 485 kts | 95° |
| 2026-05-01 13:21 | 58.14439 | 69.10217 | 38601 ft | 485 kts | 95° |
| 2026-05-01 13:21 | 58.14426 | 69.22910 | 38586 ft | 485 kts | 95° |
| 2026-05-01 13:22 | 58.14400 | 69.35638 | 38593 ft | 485 kts | 95° |
| 2026-05-01 13:22 | 58.14362 | 69.48367 | 38608 ft | 483 kts | 95° |
| 2026-05-01 13:23 | 58.14312 | 69.60989 | 38596 ft | 483 kts | 95° |
| 2026-05-01 13:23 | 58.14249 | 69.73706 | 38592 ft | 483 kts | 96° |
| 2026-05-01 13:24 | 58.14173 | 69.86382 | 38597 ft | 483 kts | 96° |
| 2026-05-01 13:25 | 58.14038 | 70.05374 | 38585 ft | 483 kts | 96° |
| 2026-05-01 13:25 | 58.13931 | 70.18040 | 38589 ft | 483 kts | 96° |
| 2026-05-01 13:26 | 58.13812 | 70.30762 | 38599 ft | 483 kts | 96° |
| 2026-05-01 13:26 | 58.13681 | 70.43375 | 38610 ft | 483 kts | 96° |
| 2026-05-01 13:27 | 58.13537 | 70.56052 | 38626 ft | 484 kts | 96° |
| 2026-05-01 13:27 | 58.13296 | 70.75163 | 38633 ft | 484 kts | 97° |
| 2026-05-01 13:28 | 58.13027 | 70.94222 | 38654 ft | 484 kts | 97° |
| 2026-05-01 13:29 | 58.12626 | 71.19571 | 38649 ft | 485 kts | 97° |
| 2026-05-01 13:31 | 58.11925 | 71.57805 | 38640 ft | 487 kts | 97° |
| 2026-05-01 13:32 | 58.11254 | 71.89666 | 38629 ft | 485 kts | 98° |
| 2026-05-01 13:33 | 58.10504 | 72.21452 | 38640 ft | 486 kts | 98° |
| 2026-05-01 13:34 | 58.09845 | 72.46996 | 38652 ft | 488 kts | 98° |
| 2026-05-01 13:35 | 58.09332 | 72.66183 | 38657 ft | 488 kts | 98° |
| 2026-05-01 13:36 | 58.08805 | 72.85347 | 38668 ft | 486 kts | 98° |
| 2026-05-01 13:36 | 58.08252 | 73.04378 | 38675 ft | 486 kts | 98° |
| 2026-05-01 13:37 | 58.07865 | 73.17094 | 38675 ft | 486 kts | 98° |
| 2026-05-01 13:37 | 58.07466 | 73.29848 | 38672 ft | 487 kts | 98° |
| 2026-05-01 13:38 | 58.06845 | 73.48908 | 38669 ft | 487 kts | 98° |
| 2026-05-01 13:39 | 58.06413 | 73.61654 | 38679 ft | 487 kts | 98° |
| 2026-05-01 13:39 | 58.05966 | 73.74486 | 38688 ft | 487 kts | 99° |
| 2026-05-01 13:40 | 58.05510 | 73.87217 | 38694 ft | 487 kts | 99° |
| 2026-05-01 13:40 | 58.05040 | 73.99953 | 38681 ft | 486 kts | 99° |
| 2026-05-01 13:41 | 58.04557 | 74.12715 | 38693 ft | 486 kts | 99° |
| 2026-05-01 13:41 | 58.04064 | 74.25391 | 38703 ft | 486 kts | 99° |
| 2026-05-01 13:42 | 58.03558 | 74.38075 | 38703 ft | 486 kts | 99° |
| 2026-05-01 13:42 | 58.03035 | 74.50840 | 38712 ft | 487 kts | 99° |
| 2026-05-01 13:43 | 58.02500 | 74.63595 | 38719 ft | 488 kts | 99° |
| 2026-05-01 13:43 | 58.01952 | 74.76369 | 38725 ft | 487 kts | 100° |
| 2026-05-01 13:44 | 58.01395 | 74.89032 | 38720 ft | 487 kts | 100° |
| 2026-05-01 13:44 | 58.00824 | 75.01749 | 38726 ft | 488 kts | 100° |
| 2026-05-01 13:45 | 58.00236 | 75.14521 | 38731 ft | 487 kts | 99° |
| 2026-05-01 13:45 | 57.99639 | 75.27245 | 38740 ft | 487 kts | 99° |
| 2026-05-01 13:46 | 57.99032 | 75.39878 | 38751 ft | 487 kts | 99° |
| 2026-05-01 13:46 | 57.98409 | 75.52605 | 38756 ft | 487 kts | 99° |
| 2026-05-01 13:47 | 57.97777 | 75.65224 | 38751 ft | 487 kts | 101° |
| 2026-05-01 13:47 | 57.97129 | 75.77923 | 38766 ft | 488 kts | 101° |
| 2026-05-01 13:48 | 57.96527 | 75.90655 | 38784 ft | 489 kts | 99° |
| 2026-05-01 13:48 | 57.95925 | 76.03386 | 38783 ft | 490 kts | 99° |
| 2026-05-01 13:49 | 57.95311 | 76.16138 | 38774 ft | 490 kts | 99° |
| 2026-05-01 13:49 | 57.94682 | 76.28917 | 38778 ft | 489 kts | 99° |
| 2026-05-01 13:50 | 57.94047 | 76.41538 | 38786 ft | 488 kts | 99° |
| 2026-05-01 13:50 | 57.93396 | 76.54227 | 38789 ft | 487 kts | 99° |
| 2026-05-01 13:51 | 57.92730 | 76.66939 | 38804 ft | 488 kts | 100° |
| 2026-05-01 13:51 | 57.92055 | 76.79596 | 38810 ft | 487 kts | 100° |
| 2026-05-01 13:52 | 57.91366 | 76.92261 | 38819 ft | 486 kts | 100° |
| 2026-05-01 13:52 | 57.90665 | 77.04899 | 38819 ft | 487 kts | 100° |
| 2026-05-01 13:53 | 57.89949 | 77.17596 | 38819 ft | 487 kts | 100° |
| 2026-05-01 13:53 | 57.88851 | 77.36608 | 38821 ft | 488 kts | 100° |
| 2026-05-01 13:54 | 57.88103 | 77.49279 | 38832 ft | 488 kts | 100° |
| 2026-05-01 13:54 | 57.87346 | 77.61893 | 38823 ft | 488 kts | 100° |
| 2026-05-01 13:55 | 57.86568 | 77.74641 | 38822 ft | 488 kts | 101° |
| 2026-05-01 13:55 | 57.85786 | 77.87234 | 38826 ft | 488 kts | 101° |
| 2026-05-01 13:56 | 57.84988 | 77.99886 | 38827 ft | 488 kts | 101° |
| 2026-05-01 13:56 | 57.84183 | 78.12449 | 38841 ft | 488 kts | 101° |
| 2026-05-01 13:57 | 57.83498 | 78.22971 | 38845 ft | 489 kts | 101° |
| 2026-05-01 13:57 | 57.82524 | 78.37712 | 38857 ft | 489 kts | 101° |
| 2026-05-01 13:58 | 57.81675 | 78.50351 | 38860 ft | 490 kts | 100° |
| 2026-05-01 13:58 | 57.80814 | 78.62974 | 38862 ft | 491 kts | 101° |
| 2026-05-01 13:59 | 57.79931 | 78.75716 | 38860 ft | 491 kts | 101° |
| 2026-05-01 13:59 | 57.79046 | 78.88315 | 38867 ft | 491 kts | 101° |
| 2026-05-01 14:00 | 57.78141 | 79.01004 | 38869 ft | 492 kts | 101° |
| 2026-05-01 14:00 | 57.77210 | 79.13886 | 38876 ft | 492 kts | 101° |
| 2026-05-01 14:01 | 57.76266 | 79.26732 | 38877 ft | 493 kts | 101° |
| 2026-05-01 14:01 | 57.75320 | 79.39439 | 38882 ft | 493 kts | 101° |
| 2026-05-01 14:02 | 57.74367 | 79.52072 | 38886 ft | 492 kts | 101° |
| 2026-05-01 14:02 | 57.73396 | 79.64757 | 38898 ft | 492 kts | 101° |
| 2026-05-01 14:03 | 57.72305 | 79.77371 | 38897 ft | 491 kts | 104° |
| 2026-05-01 14:03 | 57.71059 | 79.89897 | 38908 ft | 492 kts | 104° |
| 2026-05-01 14:04 | 57.69800 | 80.02451 | 38914 ft | 492 kts | 104° |
| 2026-05-01 14:04 | 57.68743 | 80.12890 | 38912 ft | 492 kts | 104° |
| 2026-05-01 14:05 | 57.67244 | 80.27550 | 38915 ft | 491 kts | 104° |
| 2026-05-01 14:05 | 57.65951 | 80.40050 | 38920 ft | 491 kts | 103° |
| 2026-05-01 14:06 | 57.64652 | 80.52496 | 38923 ft | 491 kts | 103° |
| 2026-05-01 14:06 | 57.63349 | 80.64970 | 38925 ft | 491 kts | 103° |
| 2026-05-01 14:07 | 57.62026 | 80.77510 | 38926 ft | 491 kts | 104° |
| 2026-05-01 14:08 | 57.60033 | 80.96165 | 38931 ft | 491 kts | 104° |
| 2026-05-01 14:08 | 57.58683 | 81.08650 | 38933 ft | 492 kts | 104° |
| 2026-05-01 14:09 | 57.57324 | 81.21092 | 38932 ft | 492 kts | 104° |
| 2026-05-01 14:09 | 57.55945 | 81.33601 | 38931 ft | 493 kts | 104° |
| 2026-05-01 14:10 | 57.54556 | 81.46072 | 38941 ft | 493 kts | 104° |
| 2026-05-01 14:10 | 57.53181 | 81.58307 | 38941 ft | 492 kts | 104° |
| 2026-05-01 14:11 | 57.51769 | 81.70756 | 38958 ft | 492 kts | 105° |
| 2026-05-01 14:11 | 57.49635 | 81.89348 | 38974 ft | 492 kts | 104° |
| 2026-05-01 14:12 | 57.48185 | 82.01837 | 38972 ft | 493 kts | 105° |
| 2026-05-01 14:12 | 57.46736 | 82.14201 | 38973 ft | 494 kts | 105° |
| 2026-05-01 14:13 | 57.45507 | 82.24594 | 38975 ft | 494 kts | 104° |
| 2026-05-01 14:13 | 57.43782 | 82.39051 | 38976 ft | 494 kts | 104° |
| 2026-05-01 14:14 | 57.42280 | 82.51520 | 38969 ft | 494 kts | 104° |
| 2026-05-01 14:14 | 57.40779 | 82.63879 | 38971 ft | 494 kts | 104° |
| 2026-05-01 14:15 | 57.39249 | 82.76365 | 38974 ft | 493 kts | 105° |
| 2026-05-01 14:15 | 57.37727 | 82.88685 | 38975 ft | 493 kts | 105° |
| 2026-05-01 14:16 | 57.36181 | 83.01071 | 38978 ft | 493 kts | 104° |
| 2026-05-01 14:16 | 57.34634 | 83.13371 | 38978 ft | 493 kts | 105° |
| 2026-05-01 14:17 | 57.33067 | 83.25714 | 38987 ft | 493 kts | 104° |
| 2026-05-01 14:17 | 57.31492 | 83.38007 | 38987 ft | 494 kts | 104° |
| 2026-05-01 14:18 | 57.29890 | 83.50416 | 38987 ft | 494 kts | 104° |
| 2026-05-01 14:18 | 57.28550 | 83.60713 | 38993 ft | 494 kts | 104° |
| 2026-05-01 14:19 | 57.26656 | 83.75140 | 38992 ft | 494 kts | 105° |
| 2026-05-01 14:19 | 57.25030 | 83.87408 | 38988 ft | 495 kts | 105° |
| 2026-05-01 14:20 | 57.22555 | 84.05892 | 39000 ft | 495 kts | 105° |
| 2026-05-01 14:21 | 57.20861 | 84.18418 | 39005 ft | 496 kts | 105° |
| 2026-05-01 14:21 | 57.19189 | 84.30675 | 39009 ft | 496 kts | 105° |
| 2026-05-01 14:22 | 57.16644 | 84.49149 | 39014 ft | 496 kts | 105° |
| 2026-05-01 14:22 | 57.14925 | 84.61508 | 39014 ft | 495 kts | 105° |
| 2026-05-01 14:23 | 57.13190 | 84.73792 | 39024 ft | 494 kts | 107° |
| 2026-05-01 14:23 | 57.11136 | 84.85809 | 39019 ft | 493 kts | 109° |
| 2026-05-01 14:24 | 57.09042 | 84.97782 | 39031 ft | 493 kts | 109° |
| 2026-05-01 14:24 | 57.06939 | 85.09744 | 39030 ft | 492 kts | 109° |
| 2026-05-01 14:25 | 57.04832 | 85.21656 | 39029 ft | 492 kts | 109° |
| 2026-05-01 14:25 | 57.02717 | 85.33540 | 39034 ft | 495 kts | 109° |
| 2026-05-01 14:26 | 56.99513 | 85.51404 | 39035 ft | 492 kts | 109° |
| 2026-05-01 14:27 | 56.97351 | 85.63362 | 39005 ft | 493 kts | 109° |
| 2026-05-01 14:27 | 56.95177 | 85.75306 | 39031 ft | 492 kts | 109° |
| 2026-05-01 14:28 | 56.91907 | 85.93141 | 39036 ft | 494 kts | 109° |
| 2026-05-01 14:28 | 56.89721 | 86.04973 | 39036 ft | 494 kts | 109° |
| 2026-05-01 14:29 | 56.87490 | 86.16973 | 39036 ft | 494 kts | 109° |
| 2026-05-01 14:30 | 56.83047 | 86.40646 | 39047 ft | 494 kts | 109° |
| 2026-05-01 14:31 | 56.79691 | 86.58336 | 39053 ft | 494 kts | 109° |
| 2026-05-01 14:31 | 56.77429 | 86.70170 | 39052 ft | 494 kts | 110° |
| 2026-05-01 14:32 | 56.75222 | 86.81643 | 39052 ft | 495 kts | 110° |
| 2026-05-01 14:32 | 56.72936 | 86.93458 | 39056 ft | 495 kts | 109° |
| 2026-05-01 14:33 | 56.70635 | 87.05276 | 39054 ft | 496 kts | 109° |
| 2026-05-01 14:33 | 56.68327 | 87.17059 | 39057 ft | 496 kts | 109° |
| 2026-05-01 14:34 | 56.66013 | 87.28801 | 39061 ft | 496 kts | 109° |
| 2026-05-01 14:34 | 56.63671 | 87.40614 | 39063 ft | 496 kts | 109° |
| 2026-05-01 14:35 | 56.61337 | 87.52321 | 39065 ft | 496 kts | 109° |
| 2026-05-01 14:35 | 56.58965 | 87.64142 | 39067 ft | 497 kts | 109° |
| 2026-05-01 14:36 | 56.56588 | 87.75920 | 39072 ft | 497 kts | 110° |
| 2026-05-01 14:36 | 56.54204 | 87.87659 | 39071 ft | 497 kts | 110° |
| 2026-05-01 14:37 | 56.51784 | 87.99506 | 39075 ft | 498 kts | 110° |
| 2026-05-01 14:37 | 56.49377 | 88.11223 | 39076 ft | 498 kts | 110° |
| 2026-05-01 14:38 | 56.46959 | 88.22922 | 39077 ft | 498 kts | 109° |
| 2026-05-01 14:38 | 56.44513 | 88.34686 | 39076 ft | 498 kts | 109° |
| 2026-05-01 14:39 | 56.42090 | 88.46278 | 39076 ft | 497 kts | 109° |
| 2026-05-01 14:39 | 56.39621 | 88.58015 | 39077 ft | 497 kts | 109° |
| 2026-05-01 14:40 | 56.37171 | 88.69601 | 39077 ft | 497 kts | 110° |
| 2026-05-01 14:40 | 56.34699 | 88.81228 | 39077 ft | 497 kts | 110° |
| 2026-05-01 14:41 | 56.32921 | 88.93180 | 39078 ft | 492 kts | 95° |
| 2026-05-01 14:41 | 56.32467 | 89.05383 | 39076 ft | 490 kts | 90° |
| 2026-05-01 14:42 | 56.32122 | 89.17646 | 39082 ft | 490 kts | 89° |
| 2026-05-01 14:42 | 56.31766 | 89.29901 | 39081 ft | 490 kts | 89° |
| 2026-05-01 14:42 | 56.31586 | 89.35975 | 38818 ft | 493 kts | 89° |
| 2026-05-01 14:43 | 56.31398 | 89.42172 | 38256 ft | 489 kts | 89° |
| 2026-05-01 14:43 | 56.31211 | 89.48229 | 37716 ft | 485 kts | 89° |
| 2026-05-01 14:43 | 56.31023 | 89.54226 | 37184 ft | 482 kts | 89° |
| 2026-05-01 14:43 | 56.30833 | 89.60235 | 36642 ft | 481 kts | 89° |
| 2026-05-01 14:44 | 56.30639 | 89.66261 | 36075 ft | 481 kts | 90° |
| 2026-05-01 14:44 | 56.30244 | 89.78290 | 34927 ft | 483 kts | 90° |
| 2026-05-01 14:44 | 56.30043 | 89.84279 | 34375 ft | 483 kts | 90° |
| 2026-05-01 14:45 | 56.29836 | 89.90370 | 33782 ft | 485 kts | 90° |
| 2026-05-01 14:45 | 56.29415 | 90.02478 | 32625 ft | 486 kts | 90° |
| 2026-05-01 14:45 | 56.29199 | 90.08551 | 32051 ft | 487 kts | 90° |
| 2026-05-01 14:46 | 56.28980 | 90.14635 | 31472 ft | 488 kts | 91° |
| 2026-05-01 14:46 | 56.28533 | 90.26803 | 30307 ft | 490 kts | 91° |
| 2026-05-01 14:46 | 56.28303 | 90.32925 | 29721 ft | 491 kts | 91° |
| 2026-05-01 14:47 | 56.28072 | 90.38996 | 29146 ft | 491 kts | 91° |
| 2026-05-01 14:47 | 56.27835 | 90.45131 | 28562 ft | 488 kts | 91° |
| 2026-05-01 14:47 | 56.27599 | 90.51160 | 27983 ft | 483 kts | 91° |
| 2026-05-01 14:48 | 56.27252 | 90.63078 | 26848 ft | 471 kts | 84° |
| 2026-05-01 14:48 | 56.27387 | 90.68930 | 26280 ft | 467 kts | 84° |
| 2026-05-01 14:48 | 56.27656 | 90.80483 | 25179 ft | 459 kts | 84° |
| 2026-05-01 14:49 | 56.27912 | 90.91867 | 24082 ft | 451 kts | 84° |
| 2026-05-01 14:49 | 56.28153 | 91.03027 | 23023 ft | 444 kts | 84° |
| 2026-05-01 14:50 | 56.28305 | 91.10367 | 22313 ft | 439 kts | 84° |
| 2026-05-01 14:50 | 56.27472 | 91.24850 | 20905 ft | 434 kts | 95° |
| 2026-05-01 14:51 | 56.27031 | 91.30202 | 20400 ft | 431 kts | 95° |
| 2026-05-01 14:51 | 56.26154 | 91.40777 | 19402 ft | 424 kts | 95° |
| 2026-05-01 14:52 | 56.25287 | 91.51153 | 18394 ft | 419 kts | 95° |
| 2026-05-01 14:52 | 56.24858 | 91.56261 | 17899 ft | 415 kts | 95° |
| 2026-05-01 14:52 | 56.24013 | 91.66480 | 16911 ft | 407 kts | 94° |
| 2026-05-01 14:53 | 56.24110 | 91.71481 | 16419 ft | 397 kts | 77° |
| 2026-05-01 14:53 | 56.24645 | 91.76263 | 15928 ft | 392 kts | 75° |
| 2026-05-01 14:53 | 56.25190 | 91.81050 | 15488 ft | 390 kts | 76° |
| 2026-05-01 14:53 | 56.25725 | 91.85792 | 15011 ft | 385 kts | 76° |
| 2026-05-01 14:54 | 56.26244 | 91.90417 | 14560 ft | 374 kts | 76° |
| 2026-05-01 14:54 | 56.26749 | 91.94925 | 14124 ft | 364 kts | 76° |
| 2026-05-01 14:54 | 56.27238 | 91.99307 | 13695 ft | 354 kts | 76° |
| 2026-05-01 14:54 | 56.27714 | 92.03587 | 13285 ft | 346 kts | 76° |
| 2026-05-01 14:55 | 56.28178 | 92.07764 | 12869 ft | 336 kts | 76° |
| 2026-05-01 14:55 | 56.28626 | 92.11814 | 12466 ft | 326 kts | 76° |
| 2026-05-01 14:55 | 56.29064 | 92.15780 | 12095 ft | 315 kts | 76° |
| 2026-05-01 14:55 | 56.29413 | 92.19626 | 11565 ft | 312 kts | 85° |
| 2026-05-01 14:56 | 56.29273 | 92.23418 | 11299 ft | 303 kts | 95° |
| 2026-05-01 14:56 | 56.29028 | 92.27148 | 10869 ft | 299 kts | 95° |
| 2026-05-01 14:56 | 56.28792 | 92.30836 | 10549 ft | 291 kts | 95° |
| 2026-05-01 14:56 | 56.28563 | 92.34396 | 10163 ft | 287 kts | 95° |
| 2026-05-01 14:57 | 56.28336 | 92.37910 | 9861 ft | 279 kts | 95° |
| 2026-05-01 14:57 | 56.27895 | 92.44736 | 9204 ft | 271 kts | 95° |
| 2026-05-01 14:57 | 56.27677 | 92.48086 | 8876 ft | 268 kts | 95° |
| 2026-05-01 14:58 | 56.27461 | 92.51404 | 8547 ft | 265 kts | 96° |
| 2026-05-01 14:58 | 56.27250 | 92.54626 | 8251 ft | 261 kts | 96° |
| 2026-05-01 14:58 | 56.27039 | 92.57840 | 7907 ft | 258 kts | 96° |
| 2026-05-01 14:58 | 56.26828 | 92.61044 | 7618 ft | 252 kts | 96° |
| 2026-05-01 14:59 | 56.26624 | 92.64133 | 7327 ft | 245 kts | 96° |
| 2026-05-01 14:59 | 56.26411 | 92.67107 | 7048 ft | 241 kts | 101° |
| 2026-05-01 14:59 | 56.25853 | 92.69961 | 6746 ft | 237 kts | 114° |
| 2026-05-01 14:59 | 56.25199 | 92.72635 | 6481 ft | 233 kts | 114° |
| 2026-05-01 15:00 | 56.23917 | 92.77934 | 5897 ft | 229 kts | 114° |
| 2026-05-01 15:00 | 56.23257 | 92.80531 | 5643 ft | 223 kts | 121° |
| 2026-05-01 15:00 | 56.22222 | 92.82553 | 5321 ft | 221 kts | 147° |
| 2026-05-01 15:01 | 56.20816 | 92.83516 | 4992 ft | 220 kts | 174° |
| 2026-05-01 15:01 | 56.19301 | 92.83179 | 4625 ft | 222 kts | 200° |
| 2026-05-01 15:01 | 56.17887 | 92.82094 | 4350 ft | 216 kts | 203° |
| 2026-05-01 15:01 | 56.16560 | 92.81055 | 4111 ft | 204 kts | 203° |
| 2026-05-01 15:02 | 56.15281 | 92.80062 | 3865 ft | 193 kts | 203° |
| 2026-05-01 15:02 | 56.14878 | 92.79749 | 3790 ft | 189 kts | 203° |
| 2026-05-01 15:02 | 56.12954 | 92.78256 | 3436 ft | 173 kts | 203° |
| 2026-05-01 15:02 | 56.11946 | 92.77189 | 3199 ft | 169 kts | 225° |
| 2026-05-01 15:03 | 56.11411 | 92.75384 | 3030 ft | 163 kts | 260° |
| 2026-05-01 15:03 | 56.11546 | 92.73328 | 3033 ft | 168 kts | 290° |
| 2026-05-01 15:03 | 56.12012 | 92.71394 | 3042 ft | 169 kts | 292° |
| 2026-05-01 15:03 | 56.12468 | 92.69463 | 3002 ft | 170 kts | 292° |
| 2026-05-01 15:04 | 56.12923 | 92.67547 | 2766 ft | 160 kts | 293° |
| 2026-05-01 15:04 | 56.13338 | 92.65823 | 2613 ft | 145 kts | 293° |
| 2026-05-01 15:04 | 56.13726 | 92.64205 | 2423 ft | 138 kts | 293° |
| 2026-05-01 15:04 | 56.14101 | 92.62643 | 2218 ft | 135 kts | 293° |
| 2026-05-01 15:05 | 56.14469 | 92.61108 | 2044 ft | 134 kts | 293° |
| 2026-05-01 15:05 | 56.14839 | 92.59564 | 1867 ft | 133 kts | 293° |
| 2026-05-01 15:05 | 56.15206 | 92.58036 | 1692 ft | 132 kts | 293° |
| 2026-05-01 15:05 | 56.15571 | 92.56512 | 1514 ft | 132 kts | 293° |
| 2026-05-01 15:06 | 56.15934 | 92.55008 | 1358 ft | 133 kts | 293° |
| 2026-05-01 15:06 | 56.16288 | 92.53545 | 1189 ft | 134 kts | 293° |
| 2026-05-01 15:06 | 56.16650 | 92.52024 | 998 ft | 132 kts | 293° |
| 2026-05-01 15:06 | 56.16990 | 92.50582 | 924 ft | 113 kts | 293° |
| 2026-05-01 15:07 | 56.17252 | 92.49495 | 914 ft | 80 kts | 294° |
| 2026-05-01 15:07 | 56.17401 | 92.48892 | 909 ft | 25 kts | 296° |
| 2026-05-01 15:07 | 56.17529 | 92.48659 | 906 ft | 27 kts | 323° |
| 2026-05-01 15:07 | 56.17613 | 92.48547 | 904 ft | 3 kts | 324° |
| 2026-05-01 15:08 | 56.17634 | 92.48519 | 904 ft | 0 kts | 324° |
| 2026-05-01 15:09 | 56.17637 | 92.48515 | 904 ft | 3 kts | 324° |
| 2026-05-01 15:09 | 56.17670 | 92.48471 | 904 ft | 7 kts | 324° |
| 2026-05-01 15:10 | 56.17717 | 92.48409 | 906 ft | 8 kts | 323° |
| 2026-05-01 15:10 | 56.17781 | 92.48225 | 911 ft | 9 kts | 293° |
| 2026-05-01 15:10 | 56.17812 | 92.48096 | 913 ft | 11 kts | 294° |
| 2026-05-01 15:11 | 56.17835 | 92.48000 | 914 ft | 7 kts | 293° |
| 2026-05-01 15:11 | 56.17925 | 92.47933 | 916 ft | 11 kts | 22° |
| 2026-05-01 15:11 | 56.17992 | 92.47984 | 918 ft | 7 kts | 20° |
| 2026-05-01 15:12 | 56.18032 | 92.47941 | 920 ft | 8 kts | 293° |
| 2026-05-01 15:12 | 56.18042 | 92.47897 | 921 ft | 3 kts | 294° |
| 2026-05-01 15:12 | 56.18056 | 92.47839 | 923 ft | 5 kts | 294° |
| 2026-05-01 15:13 | 56.18000 | 92.47794 | 921 ft | 0 kts | 115° |